Manchester, Connecticut
Current Conditions -  °F | °C
As of 4:05 PM on Thursday 27 Nov 2014 (Local Time) from KHFD Reporting Station
Light Snow Light Snow  
Wind Chill: 30°   Ceiling: 2700
Heat Index: 35°   Visibility: 6mi
Dew Point: 28°   Wind: 6mph
Humidity: 76%   Direction: NA
Pressure: 29.99"   Gusts: NA
Location:  41.78°N, 72.52°W
Report Text: KHFD 272105Z VRB05KT 6SM -SN SCT022 BKN027 OVC050 02/M02 A2999 RMK AO2 P0000 T00171022
Loading
Personal Weather Stations






























Interactive Weather Map New forecast layout! Learn more

10-Day Weather Forecast

Advertisements
Track Severe Weather on mobile